Time;durP1;ratioP1;P1;durP2;ratioP2;P2;SDS_P1;SDS_P2;PMS_P1;PMS_P2;Temp;Humidity;BMP_temperature;BMP_pressure;BME280_temperature;BME280_humidity;BME280_pressure;Samples;Min_cycle;Max_cycle;Signal;HPM_P1;HPM_P2
2024/03/13 00:02:04;;;;;;;10.23;8.40;;;10.10;99.90;;;;;;4956216;29;20403;-61
2024/03/13 00:04:43;;;;;;;11.90;8.70;;;10.00;99.90;;;;;;4944726;29;20434;-62
2024/03/13 00:07:12;;;;;;;9.37;7.43;;;10.10;99.90;;;;;;4941396;29;20269;-62
2024/03/13 00:09:50;;;;;;;10.43;7.87;;;10.10;99.90;;;;;;4938413;29;20451;-62
2024/03/13 00:12:19;;;;;;;9.87;7.93;;;10.20;99.90;;;;;;4945367;29;20417;-61
2024/03/13 00:14:52;;;;;;;9.90;8.10;;;10.20;99.90;;;;;;4932954;29;20522;-62
2024/03/13 00:17:21;;;;;;;9.10;7.30;;;10.20;99.90;;;;;;4954565;28;20452;-61
2024/03/13 00:19:47;;;;;;;8.67;7.77;;;10.20;99.90;;;;;;4956211;29;20413;-62
2024/03/13 00:22:17;;;;;;;10.07;7.83;;;10.30;99.90;;;;;;4951885;29;20443;-61
2024/03/13 00:24:44;;;;;;;12.57;8.43;;;10.40;99.90;;;;;;4953108;29;20913;-62
2024/03/13 00:27:11;;;;;;;9.53;7.43;;;10.60;99.90;;;;;;4936514;29;20426;-62
2024/03/13 00:29:38;;;;;;;11.03;8.13;;;10.60;99.90;;;;;;4953852;29;20469;-62
2024/03/13 00:32:04;;;;;;;8.90;6.90;;;10.70;99.90;;;;;;4953547;29;20435;-62
2024/03/13 00:34:30;;;;;;;9.17;6.63;;;10.70;99.90;;;;;;4954353;29;20457;-62
2024/03/13 00:36:56;;;;;;;11.23;7.63;;;10.70;99.90;;;;;;4955475;29;20864;-62
2024/03/13 00:39:22;;;;;;;11.43;7.77;;;10.50;99.90;;;;;;4946746;29;20268;-62
2024/03/13 00:41:48;;;;;;;8.13;7.30;;;10.50;99.90;;;;;;4939072;29;20181;-62
2024/03/13 00:44:14;;;;;;;9.03;7.40;;;10.70;99.90;;;;;;4955958;29;20405;-62
2024/03/13 00:46:40;;;;;;;8.87;6.90;;;10.80;99.90;;;;;;4954281;29;20459;-62
2024/03/13 00:49:09;;;;;;;7.73;6.30;;;10.70;99.90;;;;;;4955313;29;20405;-61
2024/03/13 00:51:39;;;;;;;9.43;7.60;;;10.70;99.90;;;;;;4953612;29;20487;-62
2024/03/13 00:54:05;;;;;;;9.23;6.33;;;10.40;99.90;;;;;;4948297;29;20467;-61
2024/03/13 00:56:32;;;;;;;7.73;6.77;;;10.30;99.90;;;;;;4950817;29;20449;-62
2024/03/13 00:58:58;;;;;;;9.60;6.73;;;10.40;99.90;;;;;;4936018;29;20774;-62
2024/03/13 01:01:25;;;;;;;8.00;6.63;;;10.30;99.90;;;;;;4955675;29;20420;-62
2024/03/13 01:03:51;;;;;;;8.43;6.40;;;10.50;99.90;;;;;;4953307;29;20447;-61
2024/03/13 01:06:17;;;;;;;7.57;6.50;;;10.10;99.90;;;;;;4943800;29;20418;-62
2024/03/13 01:08:44;;;;;;;7.20;6.27;;;10.10;99.90;;;;;;4955451;29;20412;-62
2024/03/13 01:11:10;;;;;;;7.10;5.93;;;10.20;99.90;;;;;;4953245;29;20440;-62
2024/03/13 01:13:37;;;;;;;7.30;6.57;;;;;;;;;;4953532;29;20416;-61
2024/03/13 01:16:07;;;;;;;6.43;5.57;;;10.30;99.90;;;;;;4954726;29;20475;-61
2024/03/13 01:18:33;;;;;;;5.70;5.20;;;10.40;99.90;;;;;;4940521;29;20449;-61
2024/03/13 01:20:59;;;;;;;6.70;5.40;;;10.50;99.90;;;;;;4936208;29;20536;-61
2024/03/13 01:23:25;;;;;;;6.70;6.00;;;10.40;99.90;;;;;;4954876;29;20896;-61
2024/03/13 01:25:53;;;;;;;7.47;5.80;;;10.40;99.90;;;;;;4951110;29;20185;-62
2024/03/13 01:28:21;;;;;;;6.13;5.47;;;10.30;99.90;;;;;;4942356;28;20472;-61
2024/03/13 01:30:47;;;;;;;6.97;5.80;;;10.20;99.90;;;;;;4949002;29;20464;-61
2024/03/13 01:33:12;;;;;;;7.33;5.33;;;10.30;99.90;;;;;;4954440;29;20450;-61
2024/03/13 01:35:38;;;;;;;6.80;5.30;;;10.30;99.90;;;;;;4953347;29;20219;-62
2024/03/13 01:38:04;;;;;;;5.63;5.10;;;10.10;99.90;;;;;;4952781;29;20232;-62
2024/03/13 01:55:06;;;;;;;7.60;6.40;;;10.10;99.90;;;;;;4951850;29;20451;-62
2024/03/13 01:57:45;;;;;;;6.40;5.10;;;10.00;99.90;;;;;;4917506;29;20856;-61
2024/03/13 02:02:56;;;;;;;5.60;5.10;;;10.00;99.90;;;;;;4952487;28;20434;-62
2024/03/13 02:05:22;;;;;;;5.60;5.00;;;10.00;99.90;;;;;;4954274;29;20916;-61
2024/03/13 02:07:48;;;;;;;5.20;4.60;;;10.10;99.90;;;;;;4950469;29;20418;-61
2024/03/13 02:10:14;;;;;;;5.80;5.20;;;10.20;99.90;;;;;;4932681;29;20184;-61
2024/03/13 02:13:04;;;;;;;5.43;4.93;;;10.40;99.90;;;;;;4935381;29;20483;-61
2024/03/13 02:15:30;;;;;;;5.17;4.70;;;10.50;99.90;;;;;;4947510;29;20449;-62
2024/03/13 02:17:55;;;;;;;5.27;4.77;;;10.60;99.90;;;;;;4952252;29;20443;-62
2024/03/13 02:20:24;;;;;;;5.90;4.80;;;10.70;99.90;;;;;;4952905;29;20178;-62
2024/03/13 02:23:02;;;;;;;5.93;5.40;;;10.80;99.90;;;;;;4952914;29;20262;-62
2024/03/13 02:25:34;;;;;;;5.40;4.73;;;10.90;99.90;;;;;;4937618;29;20421;-61
2024/03/13 02:28:00;;;;;;;4.90;4.50;;;11.00;99.90;;;;;;4940522;29;20474;-61
2024/03/13 02:30:27;;;;;;;5.27;4.77;;;11.00;99.90;;;;;;4948706;29;20452;-61
2024/03/13 02:32:54;;;;;;;4.87;4.50;;;10.70;99.90;;;;;;4918608;29;20790;-61
2024/03/13 02:35:20;;;;;;;4.73;4.20;;;10.60;99.90;;;;;;4951755;29;20457;-61
2024/03/13 02:37:46;;;;;;;4.50;4.00;;;10.60;99.90;;;;;;4947063;29;20429;-62
2024/03/13 02:40:16;;;;;;;5.30;4.67;;;10.70;99.90;;;;;;4948725;28;20428;-62
2024/03/13 02:42:46;;;;;;;5.03;4.63;;;10.60;99.90;;;;;;4939794;29;20253;-62
2024/03/13 02:45:13;;;;;;;5.30;4.80;;;10.70;99.90;;;;;;4957200;29;20507;-62
2024/03/13 02:47:41;;;;;;;4.53;4.17;;;10.70;99.90;;;;;;4945738;29;20982;-62
2024/03/13 02:50:14;;;;;;;4.67;4.37;;;10.80;99.90;;;;;;4938155;29;20433;-62
2024/03/13 02:52:40;;;;;;;5.03;4.67;;;11.30;99.90;;;;;;4938910;29;20468;-62
2024/03/13 02:55:10;;;;;;;4.73;4.33;;;10.80;99.90;;;;;;4940332;29;20461;-62
2024/03/13 02:57:36;;;;;;;5.70;5.20;;;10.80;99.90;;;;;;4938292;29;21009;-62
2024/03/13 03:00:06;;;;;;;5.00;4.50;;;10.90;99.90;;;;;;4941793;29;20438;-62
2024/03/13 03:02:40;;;;;;;6.13;4.80;;;10.70;99.90;;;;;;4942168;29;20802;-62
2024/03/13 03:05:06;;;;;;;5.63;5.07;;;10.70;99.90;;;;;;4937213;29;20429;-62
2024/03/13 03:07:33;;;;;;;5.20;4.80;;;10.70;99.90;;;;;;4940776;29;20609;-61
2024/03/13 03:09:59;;;;;;;4.73;4.43;;;10.70;99.90;;;;;;4949393;29;20491;-61
2024/03/13 03:12:26;;;;;;;4.60;4.30;;;10.80;99.90;;;;;;4939787;29;20875;-62
2024/03/13 03:14:54;;;;;;;5.27;4.87;;;10.70;99.90;;;;;;4940724;29;20974;-61
2024/03/13 03:17:23;;;;;;;5.73;5.23;;;10.40;99.90;;;;;;4928664;29;20441;-62
2024/03/13 03:19:52;;;;;;;6.10;5.67;;;10.40;99.90;;;;;;4927633;29;20440;-62
2024/03/13 03:22:18;;;;;;;5.23;4.83;;;10.50;99.90;;;;;;4937374;29;21236;-62
2024/03/13 03:24:45;;;;;;;4.80;4.40;;;10.60;99.90;;;;;;4937933;29;20454;-62
2024/03/13 03:27:12;;;;;;;4.70;4.30;;;10.70;99.90;;;;;;4938548;29;20471;-62
2024/03/13 03:29:39;;;;;;;5.20;4.70;;;10.80;99.90;;;;;;4941190;29;20460;-62
2024/03/13 03:32:05;;;;;;;4.90;4.50;;;10.90;99.90;;;;;;4938620;29;20465;-62
2024/03/13 03:34:32;;;;;;;5.13;4.73;;;11.00;99.90;;;;;;4944630;29;20505;-62
2024/03/13 03:36:58;;;;;;;4.50;4.20;;;11.10;99.90;;;;;;4944201;29;20452;-62
2024/03/13 03:39:26;;;;;;;5.10;4.60;;;11.10;99.90;;;;;;4936785;29;20518;-62
2024/03/13 03:41:52;;;;;;;6.47;4.83;;;11.10;99.90;;;;;;4945547;29;20430;-62
2024/03/13 03:44:18;;;;;;;5.80;5.30;;;11.20;99.90;;;;;;4949595;29;20448;-62
2024/03/13 03:46:44;;;;;;;5.33;4.93;;;11.30;99.90;;;;;;4919726;29;20435;-61
2024/03/13 03:49:10;;;;;;;5.47;5.07;;;11.30;99.90;;;;;;4947398;29;20452;-62
2024/03/13 03:51:36;;;;;;;5.00;4.60;;;11.40;99.90;;;;;;4947107;28;20190;-62
2024/03/13 03:54:02;;;;;;;4.33;4.03;;;11.40;99.90;;;;;;4936484;29;20479;-62
2024/03/13 03:56:28;;;;;;;4.13;3.83;;;11.50;99.90;;;;;;4940834;29;20445;-62
2024/03/13 03:58:54;;;;;;;4.60;4.30;;;11.50;99.90;;;;;;4918825;29;20778;-62
2024/03/13 04:01:21;;;;;;;5.10;4.57;;;11.50;99.90;;;;;;4930822;29;20453;-62
2024/03/13 04:03:47;;;;;;;4.67;4.27;;;11.50;99.90;;;;;;4949238;29;20426;-62
2024/03/13 04:06:19;;;;;;;4.13;3.83;;;11.50;99.90;;;;;;4942222;29;20476;-62
2024/03/13 04:08:46;;;;;;;4.27;4.07;;;11.40;99.90;;;;;;4938114;29;20465;-62
2024/03/13 04:11:12;;;;;;;4.27;3.97;;;11.40;99.90;;;;;;4958795;28;21008;-62
2024/03/13 04:13:40;;;;;;;5.30;4.90;;;11.40;99.90;;;;;;4937253;29;20415;-62
2024/03/13 04:16:10;;;;;;;4.40;4.10;;;11.40;99.90;;;;;;4922328;29;20443;-62
2024/03/13 04:18:37;;;;;;;4.20;3.90;;;11.40;99.90;;;;;;4927998;29;20804;-62
2024/03/13 04:21:03;;;;;;;3.87;3.67;;;11.40;99.90;;;;;;4952910;29;20778;-62
2024/03/13 04:23:30;;;;;;;3.90;3.70;;;11.50;99.90;;;;;;4937385;29;20438;-62
2024/03/13 04:25:56;;;;;;;4.27;3.93;;;11.50;99.90;;;;;;4949135;29;20443;-62
2024/03/13 04:28:22;;;;;;;4.20;3.83;;;11.50;99.90;;;;;;4934236;29;21111;-62
2024/03/13 04:30:49;;;;;;;4.10;3.90;;;11.60;99.90;;;;;;4940310;29;20190;-62
2024/03/13 04:33:17;;;;;;;4.37;4.00;;;11.50;99.90;;;;;;4921893;29;20799;-62
2024/03/13 04:35:43;;;;;;;4.10;3.80;;;11.40;99.90;;;;;;4937180;29;20473;-62
2024/03/13 04:38:09;;;;;;;3.90;3.60;;;11.50;99.90;;;;;;4936340;29;20421;-62
2024/03/13 04:40:39;;;;;;;4.40;4.00;;;11.50;99.90;;;;;;4943050;29;20965;-62
2024/03/13 04:43:08;;;;;;;3.33;3.13;;;11.50;99.90;;;;;;4936831;29;20432;-62
2024/03/13 04:45:37;;;;;;;4.50;3.53;;;11.50;99.90;;;;;;4951301;29;20476;-64
2024/03/13 04:48:07;;;;;;;7.33;5.17;;;11.50;99.90;;;;;;4935781;29;20901;-62
2024/03/13 04:50:36;;;;;;;8.97;7.13;;;11.60;99.90;;;;;;4936407;29;20425;-65
2024/03/13 04:53:02;;;;;;;4.40;4.10;;;11.60;99.90;;;;;;4936843;29;21002;-65
2024/03/13 04:55:29;;;;;;;4.90;4.50;;;11.60;99.90;;;;;;4923841;29;20564;-65
2024/03/13 04:57:55;;;;;;;4.30;4.00;;;11.60;99.90;;;;;;4933835;29;20451;-65
2024/03/13 05:00:21;;;;;;;4.90;4.60;;;11.70;99.90;;;;;;4939423;29;20792;-65
2024/03/13 05:02:48;;;;;;;4.07;3.73;;;11.70;99.90;;;;;;4937257;29;20828;-65
2024/03/13 05:05:14;;;;;;;4.33;3.83;;;11.80;99.90;;;;;;4941281;29;20439;-63
2024/03/13 05:07:41;;;;;;;5.20;3.33;;;11.80;99.90;;;;;;4950270;29;20918;-63
2024/03/13 05:10:09;;;;;;;3.40;3.10;;;11.80;99.90;;;;;;4944590;29;20186;-62
2024/03/13 05:12:36;;;;;;;3.70;3.40;;;11.80;99.90;;;;;;4950269;29;20438;-63
2024/03/13 05:15:06;;;;;;;3.60;3.40;;;11.80;99.90;;;;;;4953777;29;20829;-63
2024/03/13 05:17:42;;;;;;;3.03;2.67;;;11.80;99.90;;;;;;4947276;29;20512;-63
2024/03/13 05:20:11;;;;;;;4.73;4.33;;;11.80;99.90;;;;;;4920674;29;20424;-63
2024/03/13 05:22:37;;;;;;;2.73;2.63;;;11.80;99.90;;;;;;4947749;28;20906;-63
2024/03/13 05:25:04;;;;;;;2.53;2.37;;;11.90;99.90;;;;;;4935155;29;20468;-63
2024/03/13 05:27:30;;;;;;;2.93;2.73;;;11.90;99.90;;;;;;4947484;29;20999;-63
2024/03/13 05:29:56;;;;;;;3.20;3.00;;;11.90;99.90;;;;;;4941011;29;20518;-63
2024/03/13 05:32:22;;;;;;;2.93;2.73;;;11.90;99.90;;;;;;4937523;29;20336;-63
2024/03/13 05:34:49;;;;;;;3.83;2.57;;;12.00;99.90;;;;;;4935698;29;20513;-63
2024/03/13 05:37:15;;;;;;;3.40;3.20;;;12.00;99.90;;;;;;4954221;29;20415;-63
2024/03/13 05:39:41;;;;;;;3.33;3.13;;;12.00;99.90;;;;;;4953295;29;20928;-64
2024/03/13 05:42:07;;;;;;;3.30;3.10;;;12.00;99.90;;;;;;4942233;29;20641;-62
2024/03/13 05:44:34;;;;;;;3.33;3.03;;;12.00;99.90;;;;;;4937700;29;20196;-62
2024/03/13 05:46:59;;;;;;;3.70;3.30;;;12.00;99.90;;;;;;4942357;29;20271;-62
2024/03/13 05:49:25;;;;;;;4.63;4.33;;;12.00;99.90;;;;;;4954253;29;20446;-62
2024/03/13 05:51:54;;;;;;;4.17;3.87;;;12.00;99.90;;;;;;4951954;29;20202;-62
2024/03/13 05:54:20;;;;;;;4.67;4.27;;;12.10;99.90;;;;;;4949270;29;20251;-62
2024/03/13 05:56:45;;;;;;;3.27;3.03;;;12.10;99.90;;;;;;4939828;29;20597;-62
2024/03/13 05:59:11;;;;;;;4.33;3.97;;;12.10;99.90;;;;;;4943380;29;20928;-62
2024/03/13 06:01:37;;;;;;;4.03;3.73;;;12.10;99.90;;;;;;4937421;29;20660;-62
2024/03/13 06:04:03;;;;;;;5.10;4.73;;;12.20;99.90;;;;;;4918247;29;20261;-62
2024/03/13 06:06:28;;;;;;;3.80;3.50;;;12.20;99.90;;;;;;4933883;29;20188;-62
2024/03/13 06:08:54;;;;;;;3.97;3.67;;;12.20;99.90;;;;;;4946988;29;20203;-63
2024/03/13 06:11:20;;;;;;;4.60;4.30;;;12.20;99.90;;;;;;4946271;29;20181;-62
2024/03/13 06:13:46;;;;;;;4.70;4.40;;;12.10;99.90;;;;;;4934872;29;20517;-62
2024/03/13 06:16:13;;;;;;;5.10;4.60;;;12.10;99.90;;;;;;4942551;29;20196;-62
2024/03/13 06:18:40;;;;;;;6.27;5.47;;;12.20;99.90;;;;;;4944648;29;20640;-62
2024/03/13 06:21:07;;;;;;;4.40;4.10;;;12.10;99.90;;;;;;4930442;29;20425;-62
2024/03/13 06:23:36;;;;;;;4.67;4.30;;;12.10;99.90;;;;;;4946919;29;20819;-62
2024/03/13 06:26:03;;;;;;;4.47;4.10;;;12.10;99.90;;;;;;4925450;29;20486;-62
2024/03/13 06:31:15;;;;;;;4.30;4.00;;;12.10;99.90;;;;;;4950405;29;20532;-62
2024/03/13 06:33:41;;;;;;;5.67;5.17;;;12.10;99.90;;;;;;4952042;29;20481;-62
2024/03/13 06:36:07;;;;;;;4.57;4.17;;;12.10;99.90;;;;;;4944192;29;20527;-63
2024/03/13 06:38:32;;;;;;;4.10;3.63;;;12.10;99.90;;;;;;4942261;29;20518;-63
2024/03/13 06:41:00;;;;;;;4.77;4.30;;;12.10;99.90;;;;;;4932881;29;20176;-61
2024/03/13 06:43:26;;;;;;;4.37;4.07;;;12.10;99.90;;;;;;4944625;29;20436;-61
2024/03/13 06:45:52;;;;;;;4.17;3.97;;;12.10;99.90;;;;;;4942220;29;20805;-62
2024/03/13 06:48:18;;;;;;;4.63;4.43;;;12.10;99.90;;;;;;4951810;29;20425;-61
2024/03/13 06:50:44;;;;;;;5.23;4.93;;;12.10;99.90;;;;;;4936714;29;20433;-61
2024/03/13 06:53:10;;;;;;;4.20;4.00;;;12.10;99.90;;;;;;4945350;29;20214;-66
2024/03/13 06:55:36;;;;;;;4.30;4.00;;;12.10;99.90;;;;;;4939347;29;20445;-66
2024/03/13 06:58:02;;;;;;;5.00;4.70;;;12.40;99.90;;;;;;4935022;29;20532;-66
2024/03/13 07:00:28;;;;;;;4.50;4.30;;;12.70;99.90;;;;;;4932618;29;20479;-66
2024/03/13 07:02:57;;;;;;;4.10;3.73;;;13.00;99.90;;;;;;4933242;29;20468;-66
2024/03/13 07:05:23;;;;;;;3.70;3.50;;;;;;;;;;4933894;29;20196;-67
2024/03/13 07:07:49;;;;;;;3.83;3.63;;;13.60;99.90;;;;;;4935254;29;20424;-67
2024/03/13 07:10:15;;;;;;;3.50;3.30;;;13.80;99.90;;;;;;4938864;29;20457;-66
2024/03/13 07:12:42;;;;;;;3.90;3.70;;;13.90;99.90;;;;;;4934792;29;20431;-66
2024/03/13 07:15:10;;;;;;;2.90;2.80;;;14.10;99.90;;;;;;4938115;29;20464;-65
2024/03/13 07:17:38;;;;;;;3.40;3.20;;;14.20;99.90;;;;;;4942391;29;20435;-65
2024/03/13 07:20:05;;;;;;;3.53;3.23;;;14.50;99.90;;;;;;4932839;29;20461;-65
2024/03/13 07:22:30;;;;;;;3.90;3.60;;;14.70;99.90;;;;;;4931176;29;20443;-65
2024/03/13 07:24:56;;;;;;;4.23;4.03;;;14.90;99.90;;;;;;4934037;29;20481;-65
2024/03/13 07:27:22;;;;;;;3.20;3.00;;;15.00;99.90;;;;;;4935540;29;22072;-65
2024/03/13 07:29:49;;;;;;;3.83;3.63;;;15.10;99.90;;;;;;4934838;29;20463;-65
2024/03/13 07:32:16;;;;;;;5.90;5.47;;;15.30;99.90;;;;;;4940763;29;20188;-66
2024/03/13 07:34:42;;;;;;;307.47;176.33;;;15.40;99.90;;;;;;4936146;29;20499;-66
2024/03/13 07:37:10;;;;;;;143.00;87.97;;;15.40;99.90;;;;;;4942364;29;20433;-64
2024/03/13 07:39:36;;;;;;;9.83;8.63;;;15.40;99.90;;;;;;4935752;29;20851;-63
2024/03/13 07:42:02;;;;;;;3.20;2.90;;;15.30;99.90;;;;;;4912912;29;22076;-63
2024/03/13 07:44:30;;;;;;;3.70;3.50;;;15.10;99.90;;;;;;4935364;29;20473;-63
2024/03/13 07:46:56;;;;;;;2.60;2.50;;;14.90;99.90;;;;;;4944367;29;20518;-63
2024/03/13 07:49:23;;;;;;;4.57;4.33;;;14.70;99.90;;;;;;4953139;29;20583;-63
2024/03/13 07:51:49;;;;;;;3.83;3.53;;;14.50;99.90;;;;;;4938263;29;20197;-63
2024/03/13 07:54:14;;;;;;;3.90;3.70;;;14.30;99.90;;;;;;4956213;29;20938;-63
2024/03/13 07:56:40;;;;;;;3.53;3.40;;;14.20;99.90;;;;;;4955056;29;20241;-62
2024/03/13 07:59:06;;;;;;;4.50;3.80;;;14.00;99.90;;;;;;4955052;29;20179;-62
2024/03/13 08:01:40;;;;;;;3.30;3.10;;;13.90;99.90;;;;;;4955825;29;20186;-63
2024/03/13 08:04:07;;;;;;;5.13;4.93;;;13.80;99.90;;;;;;4955229;29;20465;-63
2024/03/13 08:06:36;;;;;;;4.23;2.97;;;13.70;99.90;;;;;;4937199;29;21096;-63
2024/03/13 08:09:24;;;;;;;5.47;5.07;;;13.60;99.90;;;;;;4954453;29;20451;-63
2024/03/13 08:12:09;;;;;;;3.03;2.93;;;13.50;99.90;;;;;;4954445;29;20491;-63
2024/03/13 08:14:55;;;;;;;2.53;2.43;;;13.40;99.90;;;;;;4953939;29;20900;-62
2024/03/13 08:17:40;;;;;;;3.07;2.97;;;13.30;99.90;;;;;;4947555;29;20460;-63
2024/03/13 08:20:24;;;;;;;2.87;2.67;;;13.20;99.90;;;;;;4946737;29;20451;-63
2024/03/13 08:23:10;;;;;;;2.90;2.80;;;13.10;99.90;;;;;;4956277;29;20437;-62
2024/03/13 08:25:55;;;;;;;2.90;2.80;;;13.00;99.90;;;;;;4956386;29;20894;-63
2024/03/13 08:28:40;;;;;;;2.87;2.77;;;12.90;99.90;;;;;;4948675;29;20982;-63
2024/03/13 08:31:24;;;;;;;3.30;3.20;;;12.90;99.90;;;;;;4946498;29;20447;-63
2024/03/13 08:34:09;;;;;;;2.90;2.80;;;12.90;99.90;;;;;;4953323;29;20826;-63
2024/03/13 08:36:53;;;;;;;2.80;2.70;;;12.90;99.90;;;;;;4956168;28;20904;-62
2024/03/13 08:39:37;;;;;;;2.80;2.70;;;12.90;99.90;;;;;;4947921;29;20532;-63
2024/03/13 08:42:21;;;;;;;2.60;2.50;;;12.90;99.90;;;;;;4931167;29;20486;-63
2024/03/13 08:45:10;;;;;;;3.20;3.03;;;12.90;99.90;;;;;;4954378;29;20925;-62
2024/03/13 08:47:55;;;;;;;3.90;3.70;;;12.90;99.90;;;;;;4954601;29;20455;-62
2024/03/13 08:50:40;;;;;;;3.80;3.50;;;13.00;99.90;;;;;;4949277;29;20396;-63
2024/03/13 08:53:24;;;;;;;3.30;3.10;;;13.00;99.90;;;;;;4945000;29;20447;-63
2024/03/13 08:56:10;;;;;;;3.73;3.60;;;13.00;99.90;;;;;;4954092;29;20491;-63
2024/03/13 08:58:55;;;;;;;3.37;3.27;;;13.10;99.90;;;;;;4954103;29;20503;-63
2024/03/13 09:01:42;;;;;;;3.90;3.70;;;13.10;99.90;;;;;;4949503;29;20396;-67
2024/03/13 09:04:26;;;;;;;4.57;4.27;;;13.10;99.90;;;;;;4946431;29;20445;-66
2024/03/13 09:07:10;;;;;;;3.40;3.20;;;13.50;99.90;;;;;;4953043;29;20511;-66
2024/03/13 09:09:37;;;;;;;3.30;3.10;;;13.80;99.90;;;;;;4952113;29;20528;-66
2024/03/13 09:12:06;;;;;;;3.50;3.30;;;14.20;99.90;;;;;;4955456;29;20214;-67
2024/03/13 09:14:36;;;;;;;4.13;3.83;;;14.40;99.90;;;;;;4954393;29;20558;-66
2024/03/13 09:17:05;;;;;;;3.77;3.57;;;14.60;99.90;;;;;;4953698;29;20957;-66
2024/03/13 09:19:37;;;;;;;64.03;45.97;;;14.70;99.90;;;;;;4953128;29;20601;-66
2024/03/13 09:22:11;;;;;;;26.43;18.90;;;15.00;99.90;;;;;;4955445;29;20399;-64
2024/03/13 09:24:39;;;;;;;25.07;18.93;;;15.10;99.90;;;;;;4953959;29;20431;-67
2024/03/13 09:27:05;;;;;;;23.60;15.20;;;15.50;99.90;;;;;;4953652;29;20452;-68
2024/03/13 09:29:31;;;;;;;4.67;4.27;;;15.80;99.90;;;;;;4952807;29;20472;-68
2024/03/13 09:31:57;;;;;;;5.60;5.10;;;15.90;99.90;;;;;;4955113;29;20417;-68
2024/03/13 09:34:23;;;;;;;4.50;4.10;;;15.90;99.90;;;;;;4952775;29;20491;-67
2024/03/13 09:36:49;;;;;;;3.60;3.40;;;16.00;99.90;;;;;;4953427;29;20433;-67
2024/03/13 09:39:15;;;;;;;7.97;7.17;;;;;;;;;;4955081;29;20409;-68
2024/03/13 09:41:41;;;;;;;3.30;3.10;;;16.00;99.90;;;;;;4951419;29;20476;-67
2024/03/13 09:44:11;;;;;;;3.80;3.60;;;16.00;99.90;;;;;;4951690;29;20834;-68
2024/03/13 09:46:39;;;;;;;3.47;3.03;;;16.00;99.90;;;;;;4954347;29;20467;-68
2024/03/13 09:49:06;;;;;;;3.90;3.70;;;15.60;99.90;;;;;;4952492;28;20425;-68
2024/03/13 09:51:34;;;;;;;2.60;2.50;;;15.50;99.90;;;;;;4952725;29;20444;-68
2024/03/13 09:54:03;;;;;;;2.57;2.47;;;15.30;99.90;;;;;;4954849;29;20775;-68
2024/03/13 09:56:30;;;;;;;3.50;3.30;;;15.20;99.90;;;;;;4951294;29;20487;-67
2024/03/13 09:58:56;;;;;;;3.10;2.90;;;15.10;99.90;;;;;;4952827;29;20992;-65
2024/03/13 10:01:35;;;;;;;2.67;2.47;;;15.10;99.90;;;;;;4936886;29;20912;-64
2024/03/13 10:04:10;;;;;;;2.70;2.50;;;15.10;99.90;;;;;;4953203;29;20435;-64
2024/03/13 10:06:41;;;;;;;3.13;3.03;;;15.00;99.90;;;;;;4952562;29;20435;-64
2024/03/13 10:09:15;;;;;;;2.93;2.80;;;14.90;99.90;;;;;;4952187;29;20439;-64
2024/03/13 10:11:46;;;;;;;2.50;2.40;;;14.80;99.90;;;;;;4932767;29;20493;-64
2024/03/13 10:14:12;;;;;;;3.07;2.97;;;14.60;99.90;;;;;;4954093;29;20466;-64
2024/03/13 10:16:43;;;;;;;3.07;2.97;;;14.60;99.90;;;;;;4919044;29;20436;-64
2024/03/13 10:19:12;;;;;;;3.00;2.90;;;14.50;99.90;;;;;;4953986;29;20435;-64
2024/03/13 10:21:40;;;;;;;3.30;3.20;;;14.40;99.90;;;;;;4953923;29;20973;-64
2024/03/13 10:24:08;;;;;;;2.60;2.50;;;14.30;99.90;;;;;;4952864;29;20505;-64
2024/03/13 10:26:39;;;;;;;2.63;2.53;;;14.30;99.90;;;;;;4952043;29;20938;-64
2024/03/13 10:29:08;;;;;;;2.80;2.70;;;14.30;99.90;;;;;;4954582;29;20458;-64
2024/03/13 10:31:35;;;;;;;3.10;3.00;;;14.20;99.90;;;;;;4952296;29;20455;-64
2024/03/13 10:34:02;;;;;;;2.30;2.27;;;14.20;99.90;;;;;;4935596;29;20521;-64
2024/03/13 10:36:29;;;;;;;2.90;2.80;;;14.30;99.90;;;;;;4953592;29;20907;-64
2024/03/13 10:39:00;;;;;;;2.90;2.80;;;14.20;99.90;;;;;;4935529;29;20794;-64
2024/03/13 10:41:29;;;;;;;3.00;2.90;;;14.20;99.90;;;;;;4952145;29;20441;-64
2024/03/13 10:43:55;;;;;;;2.50;2.47;;;14.10;99.90;;;;;;4954384;29;20426;-64
2024/03/13 10:46:21;;;;;;;2.93;2.80;;;14.10;99.90;;;;;;4952529;29;20434;-64
2024/03/13 10:48:49;;;;;;;2.70;2.60;;;14.10;99.90;;;;;;4932648;29;20183;-62
2024/03/13 10:51:14;;;;;;;2.13;2.03;;;14.00;99.90;;;;;;4934479;29;20221;-62
2024/03/13 10:53:43;;;;;;;2.60;2.50;;;14.00;99.90;;;;;;4936353;29;20461;-63
2024/03/13 10:56:14;;;;;;;3.10;2.90;;;14.00;99.90;;;;;;4921971;29;20481;-62
2024/03/13 10:58:42;;;;;;;347.07;231.77;;;14.10;99.90;;;;;;4940769;29;20927;-62
2024/03/13 11:01:16;;;;;;;313.40;217.17;;;14.10;99.90;;;;;;4953396;28;20437;-62
2024/03/13 11:03:43;;;;;;;10.47;9.03;;;14.10;99.90;;;;;;4945694;29;20470;-62
2024/03/13 11:06:13;;;;;;;3.07;2.87;;;14.10;99.90;;;;;;4937633;29;20756;-62
2024/03/13 11:08:41;;;;;;;2.70;2.50;;;14.10;99.90;;;;;;4937246;29;20498;-63
2024/03/13 11:11:12;;;;;;;2.40;2.30;;;14.20;99.90;;;;;;4921136;29;20433;-63
2024/03/13 11:13:44;;;;;;;2.80;2.70;;;14.20;99.90;;;;;;4935916;29;20487;-62
2024/03/13 11:16:10;;;;;;;2.90;2.70;;;14.20;99.90;;;;;;4943676;29;20478;-62
2024/03/13 11:18:42;;;;;;;2.20;2.20;;;14.20;99.90;;;;;;4903207;29;20441;-62
2024/03/13 11:21:15;;;;;;;2.60;2.50;;;14.20;99.90;;;;;;4939195;29;20462;-63
2024/03/13 11:23:50;;;;;;;2.70;2.50;;;14.20;99.90;;;;;;4942568;29;20514;-62
2024/03/13 11:26:21;;;;;;;2.60;2.40;;;14.20;99.90;;;;;;4941618;29;20445;-62
2024/03/13 11:28:52;;;;;;;2.50;2.40;;;14.20;99.90;;;;;;4956871;29;20850;-62
2024/03/13 11:31:19;;;;;;;3.00;2.90;;;14.20;99.90;;;;;;4956951;29;20422;-62
2024/03/13 11:33:45;;;;;;;49.20;36.00;;;14.20;99.90;;;;;;4948575;29;20432;-62
2024/03/13 11:36:11;;;;;;;70.10;47.27;;;14.20;99.90;;;;;;4937828;29;20953;-64
2024/03/13 11:38:38;;;;;;;6.70;6.10;;;14.20;99.90;;;;;;4954237;29;20442;-62
2024/03/13 11:41:05;;;;;;;4.20;3.80;;;14.20;99.90;;;;;;4942260;29;20435;-62
2024/03/13 11:43:32;;;;;;;3.97;3.67;;;14.20;99.90;;;;;;4939137;29;20430;-62
2024/03/13 11:45:59;;;;;;;3.80;3.60;;;14.20;99.90;;;;;;4956188;29;20411;-62
2024/03/13 11:48:25;;;;;;;4.20;3.90;;;14.20;99.90;;;;;;4948095;29;20423;-63
2024/03/13 11:51:00;;;;;;;4.30;3.97;;;14.20;99.90;;;;;;4945915;29;20989;-63
2024/03/13 11:53:31;;;;;;;4.30;3.90;;;14.30;99.90;;;;;;4954506;29;20790;-63
2024/03/13 11:55:59;;;;;;;3.93;3.67;;;14.30;99.90;;;;;;4924632;29;20499;-64
2024/03/13 11:58:31;;;;;;;4.33;4.03;;;14.30;99.90;;;;;;4943759;29;20773;-63
2024/03/13 12:00:58;;;;;;;7.20;4.60;;;14.20;99.90;;;;;;4956134;29;20446;-63
2024/03/13 12:03:33;;;;;;;6.20;4.70;;;14.30;99.90;;;;;;4955335;29;20452;-63
2024/03/13 12:06:00;;;;;;;5.50;5.00;;;14.30;99.90;;;;;;4918101;29;20431;-63
2024/03/13 12:08:29;;;;;;;5.47;5.00;;;14.20;99.90;;;;;;4948539;29;20434;-63
2024/03/13 12:10:55;;;;;;;7.20;6.57;;;14.20;99.90;;;;;;4956415;29;20503;-63
2024/03/13 12:13:24;;;;;;;7.30;6.60;;;14.20;99.90;;;;;;4941357;29;20514;-63
2024/03/13 12:15:49;;;;;;;6.97;6.27;;;14.20;99.90;;;;;;4940915;29;20224;-64
2024/03/13 12:18:18;;;;;;;7.10;6.50;;;14.20;99.90;;;;;;4946466;29;20411;-64
2024/03/13 12:20:45;;;;;;;7.27;6.67;;;14.20;99.90;;;;;;4948090;29;20266;-64
2024/03/13 12:23:17;;;;;;;8.07;6.83;;;14.20;99.90;;;;;;4952656;29;20431;-63
2024/03/13 12:25:43;;;;;;;7.97;7.20;;;14.10;99.90;;;;;;4935101;29;20474;-62
2024/03/13 12:28:16;;;;;;;8.10;7.40;;;14.10;99.90;;;;;;4933945;29;21638;-66
2024/03/13 12:30:44;;;;;;;7.37;6.77;;;14.00;99.90;;;;;;4934326;29;20442;-62
2024/03/13 12:33:14;;;;;;;6.47;5.90;;;14.00;99.90;;;;;;4947082;29;20437;-62
2024/03/13 12:35:40;;;;;;;8.63;7.60;;;14.00;99.90;;;;;;4943785;29;20470;-62
2024/03/13 12:38:06;;;;;;;8.30;7.50;;;14.00;99.90;;;;;;4938920;29;20416;-62
2024/03/13 12:40:34;;;;;;;7.53;6.77;;;14.00;99.90;;;;;;4936056;29;20438;-62
2024/03/13 12:43:04;;;;;;;8.43;7.60;;;13.90;99.90;;;;;;4930709;29;20489;-62
2024/03/13 12:45:31;;;;;;;8.83;7.93;;;13.90;99.90;;;;;;4916770;29;20983;-62
2024/03/13 12:47:57;;;;;;;9.00;7.60;;;14.10;99.90;;;;;;4933265;29;20475;-62
2024/03/13 12:50:24;;;;;;;7.57;6.80;;;13.80;99.90;;;;;;4949970;29;20433;-62
2024/03/13 12:52:51;;;;;;;8.80;7.90;;;13.80;99.90;;;;;;4938638;29;20456;-65
2024/03/13 12:55:19;;;;;;;8.60;7.70;;;13.80;99.90;;;;;;4945955;29;20462;-62
2024/03/13 12:57:49;;;;;;;8.17;7.33;;;13.80;99.90;;;;;;4943862;29;20484;-63
2024/03/13 13:00:18;;;;;;;8.07;7.30;;;13.90;99.90;;;;;;4933858;29;20434;-62
2024/03/13 13:02:53;;;;;;;8.17;7.33;;;13.90;99.90;;;;;;4932680;29;20427;-62
2024/03/13 13:05:20;;;;;;;8.60;7.13;;;13.80;99.90;;;;;;4933225;29;20433;-62
2024/03/13 13:07:50;;;;;;;12.60;8.00;;;13.80;99.90;;;;;;4912043;29;20962;-62
2024/03/13 13:10:16;;;;;;;7.93;7.23;;;13.80;99.90;;;;;;4945145;29;20790;-62
2024/03/13 13:12:42;;;;;;;7.70;6.90;;;13.80;99.90;;;;;;4934197;29;20433;-62
2024/03/13 13:15:12;;;;;;;7.83;7.10;;;13.90;99.90;;;;;;4934134;29;20545;-62